sensor_id;sensor_type;location;lat;lon;timestamp;pressure;altitude;pressure_sealevel;temperature;humidity
47670;BME280;33408;52.062;11.722;2024-02-26T00:01:52;99959.56;;;2.04;100.00
47670;BME280;33408;52.062;11.722;2024-02-26T00:04:18;99961.25;;;1.96;100.00
47670;BME280;33408;52.062;11.722;2024-02-26T00:06:48;99957.00;;;1.92;100.00
47670;BME280;33408;52.062;11.722;2024-02-26T00:09:16;99944.22;;;2.01;100.00
47670;BME280;33408;52.062;11.722;2024-02-26T00:11:43;99951.91;;;2.06;100.00
47670;BME280;33408;52.062;11.722;2024-02-26T00:14:09;99953.56;;;1.94;100.00
47670;BME280;33408;52.062;11.722;2024-02-26T00:16:36;99958.66;;;1.88;100.00
47670;BME280;33408;52.062;11.722;2024-02-26T00:19:02;99954.44;;;1.92;100.00
47670;BME280;33408;52.062;11.722;2024-02-26T00:21:29;99950.16;;;1.88;100.00
47670;BME280;33408;52.062;11.722;2024-02-26T00:23:58;99945.00;;;1.83;100.00
47670;BME280;33408;52.062;11.722;2024-02-26T00:26:24;99940.78;;;1.82;100.00
47670;BME280;33408;52.062;11.722;2024-02-26T00:28:51;99937.31;;;1.78;100.00
47670;BME280;33408;52.062;11.722;2024-02-26T00:31:17;99944.13;;;1.76;100.00
47670;BME280;33408;52.062;11.722;2024-02-26T00:33:44;99939.88;;;1.80;100.00
47670;BME280;33408;52.062;11.722;2024-02-26T00:36:10;99940.69;;;1.70;100.00
47670;BME280;33408;52.062;11.722;2024-02-26T00:38:37;99938.97;;;1.67;100.00
47670;BME280;33408;52.062;11.722;2024-02-26T00:41:06;99938.13;;;1.65;100.00
47670;BME280;33408;52.062;11.722;2024-02-26T00:43:32;99928.78;;;1.70;100.00
47670;BME280;33408;52.062;11.722;2024-02-26T00:45:59;99930.50;;;1.76;100.00
47670;BME280;33408;52.062;11.722;2024-02-26T00:48:25;99930.53;;;1.87;100.00
47670;BME280;33408;52.062;11.722;2024-02-26T00:50:52;99931.41;;;1.84;100.00
47670;BME280;33408;52.062;11.722;2024-02-26T00:53:18;99927.09;;;1.71;100.00
47670;BME280;33408;52.062;11.722;2024-02-26T00:55:45;99932.16;;;1.66;100.00
47670;BME280;33408;52.062;11.722;2024-02-26T00:58:13;99930.47;;;1.68;100.00
47670;BME280;33408;52.062;11.722;2024-02-26T01:00:40;99926.88;;;1.38;100.00
47670;BME280;33408;52.062;11.722;2024-02-26T01:03:06;99929.28;;;1.14;100.00
47670;BME280;33408;52.062;11.722;2024-02-26T01:05:35;99930.22;;;1.25;100.00
47670;BME280;33408;52.062;11.722;2024-02-26T01:08:03;99928.59;;;1.36;100.00
47670;BME280;33408;52.062;11.722;2024-02-26T01:10:29;99924.44;;;1.52;100.00
47670;BME280;33408;52.062;11.722;2024-02-26T01:12:56;99926.16;;;1.53;100.00
47670;BME280;33408;52.062;11.722;2024-02-26T01:15:24;99919.25;;;1.40;100.00
47670;BME280;33408;52.062;11.722;2024-02-26T01:17:50;99925.25;;;1.47;100.00
47670;BME280;33408;52.062;11.722;2024-02-26T01:20:17;99921.00;;;1.49;100.00
47670;BME280;33408;52.062;11.722;2024-02-26T01:22:44;99916.81;;;1.60;100.00
47670;BME280;33408;52.062;11.722;2024-02-26T01:25:10;99917.59;;;1.43;100.00
47670;BME280;33408;52.062;11.722;2024-02-26T01:27:37;99915.94;;;1.61;100.00
47670;BME280;33408;52.062;11.722;2024-02-26T01:30:06;99913.38;;;1.52;100.00
47670;BME280;33408;52.062;11.722;2024-02-26T01:32:34;99910.78;;;1.49;100.00
47670;BME280;33408;52.062;11.722;2024-02-26T01:35:01;99918.44;;;1.45;100.00
47670;BME280;33408;52.062;11.722;2024-02-26T01:37:28;99917.31;;;1.02;100.00
47670;BME280;33408;52.062;11.722;2024-02-26T01:39:56;99923.28;;;1.05;100.00
47670;BME280;33408;52.062;11.722;2024-02-26T01:42:22;99916.41;;;0.98;100.00
47670;BME280;33408;52.062;11.722;2024-02-26T01:44:49;99921.50;;;0.98;100.00
47670;BME280;33408;52.062;11.722;2024-02-26T01:47:15;99925.81;;;1.02;100.00
47670;BME280;33408;52.062;11.722;2024-02-26T01:49:44;99920.72;;;1.02;100.00
47670;BME280;33408;52.062;11.722;2024-02-26T01:52:10;99913.84;;;0.92;100.00
47670;BME280;33408;52.062;11.722;2024-02-26T01:54:37;99904.53;;;1.00;100.00
47670;BME280;33408;52.062;11.722;2024-02-26T01:57:06;99905.38;;;1.01;100.00
47670;BME280;33408;52.062;11.722;2024-02-26T01:59:34;99902.84;;;1.02;100.00
47670;BME280;33408;52.062;11.722;2024-02-26T02:02:01;99891.81;;;1.05;100.00
47670;BME280;33408;52.062;11.722;2024-02-26T02:04:29;99898.63;;;1.11;100.00
47670;BME280;33408;52.062;11.722;2024-02-26T02:07:00;99905.50;;;1.16;100.00
47670;BME280;33408;52.062;11.722;2024-02-26T02:09:27;99905.47;;;1.12;100.00
47670;BME280;33408;52.062;11.722;2024-02-26T02:11:54;99901.22;;;1.14;100.00
47670;BME280;33408;52.062;11.722;2024-02-26T02:14:20;99900.25;;;0.96;100.00
47670;BME280;33408;52.062;11.722;2024-02-26T02:16:47;99907.00;;;0.89;100.00
47670;BME280;33408;52.062;11.722;2024-02-26T02:19:14;99903.66;;;1.00;100.00
47670;BME280;33408;52.062;11.722;2024-02-26T02:21:42;99903.63;;;0.90;100.00
47670;BME280;33408;52.062;11.722;2024-02-26T02:24:08;99894.34;;;1.03;100.00
47670;BME280;33408;52.062;11.722;2024-02-26T02:26:35;99902.03;;;1.11;100.00
47670;BME280;33408;52.062;11.722;2024-02-26T02:29:03;99895.25;;;1.12;100.00
47670;BME280;33408;52.062;11.722;2024-02-26T02:31:30;99894.31;;;0.99;100.00
47670;BME280;33408;52.062;11.722;2024-02-26T02:33:57;99896.00;;;1.00;100.00
47670;BME280;33408;52.062;11.722;2024-02-26T02:36:24;99893.44;;;0.98;100.00
47670;BME280;33408;52.062;11.722;2024-02-26T02:38:52;99889.28;;;1.13;100.00
47670;BME280;33408;52.062;11.722;2024-02-26T02:41:18;99897.72;;;0.99;100.00
47670;BME280;33408;52.062;11.722;2024-02-26T02:43:47;99903.66;;;0.94;100.00
47670;BME280;33408;52.062;11.722;2024-02-26T02:46:13;99906.09;;;0.83;100.00
47670;BME280;33408;52.062;11.722;2024-02-26T02:48:41;99910.19;;;0.64;100.00
47670;BME280;33408;52.062;11.722;2024-02-26T02:51:08;99916.94;;;0.57;100.00
47670;BME280;33408;52.062;11.722;2024-02-26T02:53:35;99919.41;;;0.48;100.00
47670;BME280;33408;52.062;11.722;2024-02-26T02:56:04;99921.16;;;0.53;100.00
47670;BME280;33408;52.062;11.722;2024-02-26T02:58:30;99917.75;;;0.53;100.00
47670;BME280;33408;52.062;11.722;2024-02-26T03:00:57;99919.53;;;0.60;100.00
47670;BME280;33408;52.062;11.722;2024-02-26T03:03:25;99916.13;;;0.64;100.00
47670;BME280;33408;52.062;11.722;2024-02-26T03:05:54;99914.47;;;0.66;100.00
47670;BME280;33408;52.062;11.722;2024-02-26T03:08:20;99910.34;;;0.79;100.00
47670;BME280;33408;52.062;11.722;2024-02-26T03:10:47;99918.88;;;0.86;100.00
47670;BME280;33408;52.062;11.722;2024-02-26T03:13:15;99922.31;;;0.91;100.00
47670;BME280;33408;52.062;11.722;2024-02-26T03:15:41;99923.13;;;0.88;100.00
47670;BME280;33408;52.062;11.722;2024-02-26T03:18:08;99924.97;;;1.00;100.00
47670;BME280;33408;52.062;11.722;2024-02-26T03:20:35;99925.69;;;0.87;100.00
47670;BME280;33408;52.062;11.722;2024-02-26T03:23:02;99930.47;;;0.47;100.00
47670;BME280;33408;52.062;11.722;2024-02-26T03:25:29;99933.75;;;0.36;100.00
47670;BME280;33408;52.062;11.722;2024-02-26T03:27:55;99928.78;;;0.49;100.00
47670;BME280;33408;52.062;11.722;2024-02-26T03:30:23;99928.78;;;0.50;100.00
47670;BME280;33408;52.062;11.722;2024-02-26T03:32:50;99941.53;;;0.49;100.00
47670;BME280;33408;52.062;11.722;2024-02-26T03:35:16;99944.00;;;0.43;100.00
47670;BME280;33408;52.062;11.722;2024-02-26T03:37:43;99945.75;;;0.50;100.00
47670;BME280;33408;52.062;11.722;2024-02-26T03:40:11;99946.66;;;0.52;100.00
47670;BME280;33408;52.062;11.722;2024-02-26T03:42:39;99946.72;;;0.58;100.00
47670;BME280;33408;52.062;11.722;2024-02-26T03:45:07;99944.16;;;0.58;100.00
47670;BME280;33408;52.062;11.722;2024-02-26T03:47:37;99952.59;;;0.52;100.00
47670;BME280;33408;52.062;11.722;2024-02-26T03:50:04;99951.78;;;0.55;100.00
47670;BME280;33408;52.062;11.722;2024-02-26T03:52:31;99954.31;;;0.52;100.00
47670;BME280;33408;52.062;11.722;2024-02-26T03:54:58;99965.41;;;0.57;100.00
47670;BME280;33408;52.062;11.722;2024-02-26T03:57:25;99958.56;;;0.54;100.00
47670;BME280;33408;52.062;11.722;2024-02-26T03:59:51;99956.00;;;0.53;100.00
47670;BME280;33408;52.062;11.722;2024-02-26T04:02:18;99961.13;;;0.56;100.00
47670;BME280;33408;52.062;11.722;2024-02-26T04:04:47;99963.66;;;0.53;100.00
47670;BME280;33408;52.062;11.722;2024-02-26T04:07:13;99971.28;;;0.51;100.00
47670;BME280;33408;52.062;11.722;2024-02-26T04:09:40;99967.00;;;0.47;100.00
47670;BME280;33408;52.062;11.722;2024-02-26T04:12:07;99973.84;;;0.53;100.00
47670;BME280;33408;52.062;11.722;2024-02-26T04:14:35;99969.63;;;0.53;100.00
47670;BME280;33408;52.062;11.722;2024-02-26T04:17:02;99975.50;;;0.48;100.00
47670;BME280;33408;52.062;11.722;2024-02-26T04:19:28;99970.38;;;0.46;100.00
47670;BME280;33408;52.062;11.722;2024-02-26T04:21:56;99967.94;;;0.56;100.00
47670;BME280;33408;52.062;11.722;2024-02-26T04:24:23;99972.38;;;0.77;100.00
47670;BME280;33408;52.062;11.722;2024-02-26T04:26:49;99973.13;;;0.63;100.00
47670;BME280;33408;52.062;11.722;2024-02-26T04:29:16;99964.38;;;0.41;100.00
47670;BME280;33408;52.062;11.722;2024-02-26T04:31:43;99970.50;;;0.59;100.00
47670;BME280;33408;52.062;11.722;2024-02-26T04:34:11;99968.75;;;0.53;100.00
47670;BME280;33408;52.062;11.722;2024-02-26T04:36:37;99966.19;;;0.51;100.00
47670;BME280;33408;52.062;11.722;2024-02-26T04:39:06;99967.84;;;0.48;100.00
47670;BME280;33408;52.062;11.722;2024-02-26T04:41:33;99961.94;;;0.52;100.00
47670;BME280;33408;52.062;11.722;2024-02-26T04:44:00;99970.38;;;0.45;100.00
47670;BME280;33408;52.062;11.722;2024-02-26T04:46:27;99967.91;;;0.54;100.00
47670;BME280;33408;52.062;11.722;2024-02-26T04:48:53;99959.44;;;0.57;100.00
47670;BME280;33408;52.062;11.722;2024-02-26T04:51:20;99968.84;;;0.64;100.00
47670;BME280;33408;52.062;11.722;2024-02-26T04:53:47;99962.06;;;0.66;100.00
47670;BME280;33408;52.062;11.722;2024-02-26T04:56:15;99963.91;;;0.79;100.00
47670;BME280;33408;52.062;11.722;2024-02-26T04:58:42;99972.44;;;0.83;100.00
47670;BME280;33408;52.062;11.722;2024-02-26T05:01:09;99974.19;;;0.85;100.00
47670;BME280;33408;52.062;11.722;2024-02-26T05:03:36;99976.78;;;0.96;100.00
47670;BME280;33408;52.062;11.722;2024-02-26T05:06:03;99981.97;;;1.02;100.00
47670;BME280;33408;52.062;11.722;2024-02-26T05:08:30;99987.97;;;1.11;100.00
47670;BME280;33408;52.062;11.722;2024-02-26T05:10:59;99985.44;;;1.14;100.00
47670;BME280;33408;52.062;11.722;2024-02-26T05:13:27;99984.69;;;1.25;100.00
47670;BME280;33408;52.062;11.722;2024-02-26T05:15:53;99995.72;;;1.20;100.00
47670;BME280;33408;52.062;11.722;2024-02-26T05:18:20;99993.81;;;0.94;100.00
47670;BME280;33408;52.062;11.722;2024-02-26T05:20:46;99987.13;;;0.21;100.00
47670;BME280;33408;52.062;11.722;2024-02-26T05:23:13;99992.22;;;0.21;100.00
47670;BME280;33408;52.062;11.722;2024-02-26T05:25:40;99991.63;;;0.44;100.00
47670;BME280;33408;52.062;11.722;2024-02-26T05:28:06;99989.16;;;0.53;100.00
47670;BME280;33408;52.062;11.722;2024-02-26T05:30:35;99997.75;;;0.64;100.00
47670;BME280;33408;52.062;11.722;2024-02-26T05:33:01;100001.19;;;0.66;100.00
47670;BME280;33408;52.062;11.722;2024-02-26T05:35:28;100003.75;;;0.66;100.00
47670;BME280;33408;52.062;11.722;2024-02-26T05:37:54;100006.31;;;0.66;100.00
47670;BME280;33408;52.062;11.722;2024-02-26T05:40:21;100007.97;;;0.61;100.00
47670;BME280;33408;52.062;11.722;2024-02-26T05:42:48;100011.16;;;0.45;100.00
47670;BME280;33408;52.062;11.722;2024-02-26T05:45:14;100008.56;;;0.40;100.00
47670;BME280;33408;52.062;11.722;2024-02-26T05:47:42;100020.28;;;0.26;100.00
47670;BME280;33408;52.062;11.722;2024-02-26T05:50:09;100011.09;;;0.35;100.00
47670;BME280;33408;52.062;11.722;2024-02-26T05:52:36;100017.81;;;0.32;100.00
47670;BME280;33408;52.062;11.722;2024-02-26T05:55:03;100018.69;;;0.32;100.00
47670;BME280;33408;52.062;11.722;2024-02-26T05:57:30;100015.13;;;0.20;100.00
47670;BME280;33408;52.062;11.722;2024-02-26T05:59:57;100020.28;;;0.24;100.00
47670;BME280;33408;52.062;11.722;2024-02-26T06:02:26;100015.13;;;0.18;100.00
47670;BME280;33408;52.062;11.722;2024-02-26T06:04:54;100018.03;;;0.50;100.00
47670;BME280;33408;52.062;11.722;2024-02-26T06:07:20;100018.03;;;0.50;100.00
47670;BME280;33408;52.062;11.722;2024-02-26T06:09:47;100019.00;;;0.60;100.00
47670;BME280;33408;52.062;11.722;2024-02-26T06:12:14;100019.06;;;0.66;100.00
47670;BME280;33408;52.062;11.722;2024-02-26T06:14:41;100011.28;;;0.54;100.00
47670;BME280;33408;52.062;11.722;2024-02-26T06:17:08;100016.44;;;0.59;100.00
47670;BME280;33408;52.062;11.722;2024-02-26T06:19:34;100008.81;;;0.62;100.00
47670;BME280;33408;52.062;11.722;2024-02-26T06:22:02;100012.22;;;0.64;100.00
47670;BME280;33408;52.062;11.722;2024-02-26T06:24:29;100022.59;;;0.81;100.00
47670;BME280;33408;52.062;11.722;2024-02-26T06:26:56;100023.56;;;0.92;100.00
47670;BME280;33408;52.062;11.722;2024-02-26T06:29:22;100021.06;;;1.01;100.00
47670;BME280;33408;52.062;11.722;2024-02-26T06:31:49;100025.38;;;1.05;100.00
47670;BME280;33408;52.062;11.722;2024-02-26T06:34:16;100020.34;;;1.12;100.00
47670;BME280;33408;52.062;11.722;2024-02-26T06:36:42;100028.81;;;1.11;100.00
47670;BME280;33408;52.062;11.722;2024-02-26T06:39:10;100027.25;;;1.26;100.00
47670;BME280;33408;52.062;11.722;2024-02-26T06:41:37;100032.47;;;1.40;100.00
47670;BME280;33408;52.062;11.722;2024-02-26T06:44:05;100035.06;;;1.45;100.00
47670;BME280;33408;52.062;11.722;2024-02-26T06:46:32;100037.47;;;1.26;100.00
47670;BME280;33408;52.062;11.722;2024-02-26T06:48:58;100045.13;;;1.25;100.00
47670;BME280;33408;52.062;11.722;2024-02-26T06:51:25;100049.44;;;1.32;100.00
47670;BME280;33408;52.062;11.722;2024-02-26T06:53:52;100048.66;;;1.42;100.00
47670;BME280;33408;52.062;11.722;2024-02-26T06:56:20;100043.66;;;1.53;100.00
47670;BME280;33408;52.062;11.722;2024-02-26T06:58:46;100040.34;;;1.70;100.00
47670;BME280;33408;52.062;11.722;2024-02-26T07:01:13;100044.63;;;1.75;100.00
47670;BME280;33408;52.062;11.722;2024-02-26T07:03:40;100049.72;;;1.69;100.00
47670;BME280;33408;52.062;11.722;2024-02-26T07:06:08;100047.25;;;1.85;100.00
47670;BME280;33408;52.062;11.722;2024-02-26T07:08:34;100052.38;;;1.88;100.00
47670;BME280;33408;52.062;11.722;2024-02-26T07:11:01;100059.19;;;1.87;100.00
47670;BME280;33408;52.062;11.722;2024-02-26T07:13:29;100060.16;;;2.03;100.00
47670;BME280;33408;52.062;11.722;2024-02-26T07:15:56;100054.16;;;2.03;100.00
47670;BME280;33408;52.062;11.722;2024-02-26T07:18:23;100061.84;;;2.06;100.00
47670;BME280;33408;52.062;11.722;2024-02-26T07:20:49;100055.94;;;2.21;100.00
47670;BME280;33408;52.062;11.722;2024-02-26T07:23:16;100061.03;;;2.13;100.00
47670;BME280;33408;52.062;11.722;2024-02-26T07:25:43;100061.06;;;2.22;100.00
47670;BME280;33408;52.062;11.722;2024-02-26T07:28:09;100060.25;;;2.25;100.00
47670;BME280;33408;52.062;11.722;2024-02-26T07:30:37;100066.28;;;2.39;100.00
47670;BME280;33408;52.062;11.722;2024-02-26T07:33:04;100065.38;;;2.29;100.00
47670;BME280;33408;52.062;11.722;2024-02-26T07:35:31;100065.44;;;2.40;100.00
47670;BME280;33408;52.062;11.722;2024-02-26T07:37:58;100065.44;;;2.39;100.00
47670;BME280;33408;52.062;11.722;2024-02-26T07:40:25;100062.06;;;2.50;100.00
47670;BME280;33408;52.062;11.722;2024-02-26T07:42:52;100050.13;;;2.55;100.00
47670;BME280;33408;52.062;11.722;2024-02-26T07:45:25;100065.50;;;2.59;100.00
47670;BME280;33408;52.062;11.722;2024-02-26T07:47:53;100062.97;;;2.72;100.00
47670;BME280;33408;52.062;11.722;2024-02-26T07:50:20;100071.53;;;2.76;100.00
47670;BME280;33408;52.062;11.722;2024-02-26T07:52:47;100064.69;;;2.81;100.00
47670;BME280;33408;52.062;11.722;2024-02-26T07:55:13;100071.53;;;2.95;100.00
47670;BME280;33408;52.062;11.722;2024-02-26T07:57:43;100067.28;;;2.92;100.00
47670;BME280;33408;52.062;11.722;2024-02-26T08:00:10;100071.56;;;3.07;100.00
47670;BME280;33408;52.062;11.722;2024-02-26T08:02:37;100075.00;;;3.15;100.00
47670;BME280;33408;52.062;11.722;2024-02-26T08:05:05;100074.16;;;3.08;100.00
47670;BME280;33408;52.062;11.722;2024-02-26T08:07:32;100073.31;;;3.16;100.00
47670;BME280;33408;52.062;11.722;2024-02-26T08:09:59;100073.28;;;3.22;100.00
47670;BME280;33408;52.062;11.722;2024-02-26T08:12:25;100076.72;;;3.24;100.00
47670;BME280;33408;52.062;11.722;2024-02-26T08:14:52;100073.31;;;3.37;100.00
47670;BME280;33408;52.062;11.722;2024-02-26T08:17:18;100082.72;;;3.52;100.00
47670;BME280;33408;52.062;11.722;2024-02-26T08:19:45;100084.41;;;3.45;100.00
47670;BME280;33408;52.062;11.722;2024-02-26T08:22:13;100086.97;;;3.47;100.00
47670;BME280;33408;52.062;11.722;2024-02-26T08:24:41;100089.53;;;3.72;100.00
47670;BME280;33408;52.062;11.722;2024-02-26T08:27:08;100088.69;;;3.68;100.00
47670;BME280;33408;52.062;11.722;2024-02-26T08:29:34;100090.38;;;3.92;100.00
47670;BME280;33408;52.062;11.722;2024-02-26T08:32:01;100087.78;;;4.08;100.00
47670;BME280;33408;52.062;11.722;2024-02-26T08:34:28;100090.28;;;4.23;100.00
47670;BME280;33408;52.062;11.722;2024-02-26T08:36:55;100092.03;;;4.09;100.00
47670;BME280;33408;52.062;11.722;2024-02-26T08:39:23;100092.84;;;4.35;100.00
47670;BME280;33408;52.062;11.722;2024-02-26T08:41:51;100095.38;;;4.45;100.00
47670;BME280;33408;52.062;11.722;2024-02-26T08:44:17;100097.88;;;4.54;100.00
47670;BME280;33408;52.062;11.722;2024-02-26T08:46:44;100102.16;;;4.60;100.00
47670;BME280;33408;52.062;11.722;2024-02-26T08:49:11;100102.94;;;4.72;100.00
47670;BME280;33408;52.062;11.722;2024-02-26T08:51:41;100107.25;;;4.73;100.00
47670;BME280;33408;52.062;11.722;2024-02-26T08:54:08;100107.13;;;4.95;100.00
47670;BME280;33408;52.062;11.722;2024-02-26T08:56:36;100111.38;;;4.99;100.00
47670;BME280;33408;52.062;11.722;2024-02-26T08:59:03;100108.81;;;4.98;100.00
47670;BME280;33408;52.062;11.722;2024-02-26T09:01:31;100104.41;;;5.17;100.00
47670;BME280;33408;52.062;11.722;2024-02-26T09:03:57;100106.88;;;5.35;100.00
47670;BME280;33408;52.062;11.722;2024-02-26T09:06:24;100104.28;;;5.40;100.00
47670;BME280;33408;52.062;11.722;2024-02-26T09:08:51;100110.22;;;5.46;100.00
47670;BME280;33408;52.062;11.722;2024-02-26T09:11:17;100107.50;;;5.63;100.00
47670;BME280;33408;52.062;11.722;2024-02-26T09:13:48;100114.34;;;5.68;100.00
47670;BME280;33408;52.062;11.722;2024-02-26T09:16:15;100120.31;;;5.70;100.00
47670;BME280;33408;52.062;11.722;2024-02-26T09:18:41;100110.94;;;5.64;100.00
47670;BME280;33408;52.062;11.722;2024-02-26T09:21:08;100115.16;;;5.71;100.00
47670;BME280;33408;52.062;11.722;2024-02-26T09:23:34;100109.16;;;5.72;100.00
47670;BME280;33408;52.062;11.722;2024-02-26T09:26:01;100103.97;;;5.77;100.00
47670;BME280;33408;52.062;11.722;2024-02-26T09:28:28;100112.38;;;5.99;100.00
47670;BME280;33408;52.062;11.722;2024-02-26T09:30:58;100110.56;;;6.10;100.00
47670;BME280;33408;52.062;11.722;2024-02-26T09:33:24;100110.66;;;5.93;100.00
47670;BME280;33408;52.062;11.722;2024-02-26T09:35:51;100103.56;;;6.23;100.00
47670;BME280;33408;52.062;11.722;2024-02-26T09:38:18;100109.72;;;6.07;100.00
47670;BME280;33408;52.062;11.722;2024-02-26T09:40:44;100115.56;;;6.23;100.00
47670;BME280;33408;52.062;11.722;2024-02-26T09:43:14;100108.78;;;6.15;100.00
47670;BME280;33408;52.062;11.722;2024-02-26T09:45:41;100111.38;;;6.12;100.00
47670;BME280;33408;52.062;11.722;2024-02-26T09:48:10;100100.75;;;6.43;100.00
47670;BME280;33408;52.062;11.722;2024-02-26T09:50:40;100108.59;;;6.31;100.00
47670;BME280;33408;52.062;11.722;2024-02-26T09:53:08;100104.94;;;6.52;100.00
47670;BME280;33408;52.062;11.722;2024-02-26T09:55:35;100108.38;;;6.51;100.00
47670;BME280;33408;52.062;11.722;2024-02-26T09:58:04;100110.06;;;6.52;100.00
47670;BME280;33408;52.062;11.722;2024-02-26T10:00:31;100112.59;;;6.56;100.00
47670;BME280;33408;52.062;11.722;2024-02-26T10:03:03;100129.59;;;6.73;100.00
47670;BME280;33408;52.062;11.722;2024-02-26T10:05:31;100117.53;;;6.77;100.00
47670;BME280;33408;52.062;11.722;2024-02-26T10:08:00;100116.66;;;6.76;100.00
47670;BME280;33408;52.062;11.722;2024-02-26T10:10:29;100116.53;;;6.85;100.00
47670;BME280;33408;52.062;11.722;2024-02-26T10:12:56;100118.16;;;6.94;100.00
47670;BME280;33408;52.062;11.722;2024-02-26T10:15:23;100121.56;;;6.96;100.00
47670;BME280;33408;52.062;11.722;2024-02-26T10:17:51;100123.09;;;7.08;100.00
47670;BME280;33408;52.062;11.722;2024-02-26T10:20:18;100123.03;;;7.12;100.00
47670;BME280;33408;52.062;11.722;2024-02-26T10:22:48;100125.66;;;7.11;100.00
47670;BME280;33408;52.062;11.722;2024-02-26T10:25:15;100127.75;;;7.42;100.00
47670;BME280;33408;52.062;11.722;2024-02-26T10:27:41;100128.03;;;7.25;100.00
47670;BME280;33408;52.062;11.722;2024-02-26T10:30:16;100121.91;;;7.30;100.00
47670;BME280;33408;52.062;11.722;2024-02-26T10:32:44;100123.44;;;7.45;100.00
47670;BME280;33408;52.062;11.722;2024-02-26T10:35:11;100119.31;;;7.32;100.00
47670;BME280;33408;52.062;11.722;2024-02-26T10:37:38;100122.47;;;7.51;100.00
47670;BME280;33408;52.062;11.722;2024-02-26T10:40:10;100115.81;;;7.38;100.00
47670;BME280;33408;52.062;11.722;2024-02-26T10:42:36;100122.78;;;7.33;100.00
47670;BME280;33408;52.062;11.722;2024-02-26T10:45:04;100124.38;;;7.40;100.00
47670;BME280;33408;52.062;11.722;2024-02-26T10:47:31;100127.94;;;7.31;100.00
47670;BME280;33408;52.062;11.722;2024-02-26T10:49:59;100130.22;;;7.49;100.00
47670;BME280;33408;52.062;11.722;2024-02-26T10:52:26;100127.69;;;7.48;100.00
47670;BME280;33408;52.062;11.722;2024-02-26T10:54:54;100130.38;;;7.40;100.00
47670;BME280;33408;52.062;11.722;2024-02-26T10:57:24;100134.66;;;7.41;100.00
47670;BME280;33408;52.062;11.722;2024-02-26T10:59:51;100136.22;;;7.50;100.00
47670;BME280;33408;52.062;11.722;2024-02-26T11:02:20;100131.00;;;7.56;100.00
47670;BME280;33408;52.062;11.722;2024-02-26T11:04:47;100133.56;;;7.56;100.00
47670;BME280;33408;52.062;11.722;2024-02-26T11:07:15;100129.19;;;7.60;100.00
47670;BME280;33408;52.062;11.722;2024-02-26T11:09:43;100128.50;;;7.50;100.00
47670;BME280;33408;52.062;11.722;2024-02-26T11:12:18;100130.91;;;7.62;100.00
47670;BME280;33408;52.062;11.722;2024-02-26T11:14:46;100121.41;;;7.64;100.00
47670;BME280;33408;52.062;11.722;2024-02-26T11:17:15;100122.97;;;7.75;100.00
47670;BME280;33408;52.062;11.722;2024-02-26T11:19:43;100128.91;;;7.80;100.00
47670;BME280;33408;52.062;11.722;2024-02-26T11:22:11;100123.22;;;7.58;100.00
47670;BME280;33408;52.062;11.722;2024-02-26T11:24:38;100113.63;;;7.66;100.00
47670;BME280;33408;52.062;11.722;2024-02-26T11:27:09;100123.84;;;7.74;100.00
47670;BME280;33408;52.062;11.722;2024-02-26T11:29:39;100112.88;;;7.59;100.00
47670;BME280;33408;52.062;11.722;2024-02-26T11:32:11;100113.50;;;7.74;100.00
47670;BME280;33408;52.062;11.722;2024-02-26T11:34:38;100111.66;;;7.82;100.00
47670;BME280;33408;52.062;11.722;2024-02-26T11:37:10;100107.47;;;7.75;100.00
47670;BME280;33408;52.062;11.722;2024-02-26T11:39:39;100112.53;;;7.82;100.00
47670;BME280;33408;52.062;11.722;2024-02-26T11:42:07;100108.16;;;7.86;100.00
47670;BME280;33408;52.062;11.722;2024-02-26T11:44:35;100104.63;;;7.90;100.00
47670;BME280;33408;52.062;11.722;2024-02-26T11:47:11;100112.38;;;7.89;100.00
47670;BME280;33408;52.062;11.722;2024-02-26T11:49:38;100105.19;;;8.06;100.00
47670;BME280;33408;52.062;11.722;2024-02-26T11:52:06;100108.91;;;7.91;100.00
47670;BME280;33408;52.062;11.722;2024-02-26T11:54:46;100113.69;;;8.13;100.00
47670;BME280;33408;52.062;11.722;2024-02-26T11:57:23;100108.59;;;8.08;100.00
47670;BME280;33408;52.062;11.722;2024-02-26T11:59:50;100110.25;;;8.12;100.00
47670;BME280;33408;52.062;11.722;2024-02-26T12:02:43;100112.88;;;8.11;100.00
47670;BME280;33408;52.062;11.722;2024-02-26T12:05:12;100116.97;;;8.21;100.00
47670;BME280;33408;52.062;11.722;2024-02-26T12:07:44;100115.09;;;8.31;100.00
47670;BME280;33408;52.062;11.722;2024-02-26T12:10:22;100116.66;;;8.38;100.00
47670;BME280;33408;52.062;11.722;2024-02-26T12:12:53;100113.38;;;8.30;100.00
47670;BME280;33408;52.062;11.722;2024-02-26T12:15:22;100109.94;;;8.31;100.00
47670;BME280;33408;52.062;11.722;2024-02-26T12:17:51;100111.66;;;8.29;100.00
47670;BME280;33408;52.062;11.722;2024-02-26T12:20:18;100117.66;;;8.32;100.00
47670;BME280;33408;52.062;11.722;2024-02-26T12:22:46;100114.91;;;8.40;100.00
47670;BME280;33408;52.062;11.722;2024-02-26T12:25:13;100124.34;;;8.41;100.00
47670;BME280;33408;52.062;11.722;2024-02-26T12:27:40;100118.19;;;8.50;100.00
47670;BME280;33408;52.062;11.722;2024-02-26T12:30:07;100122.31;;;8.60;100.00
47670;BME280;33408;52.062;11.722;2024-02-26T12:32:35;100124.00;;;8.60;100.00
47670;BME280;33408;52.062;11.722;2024-02-26T12:35:04;100133.16;;;8.78;100.00
47670;BME280;33408;52.062;11.722;2024-02-26T12:37:32;100126.34;;;8.72;100.00
47670;BME280;33408;52.062;11.722;2024-02-26T12:39:58;100117.88;;;8.65;100.00
47670;BME280;33408;52.062;11.722;2024-02-26T12:42:25;100120.91;;;8.86;100.00
47670;BME280;33408;52.062;11.722;2024-02-26T12:44:52;100115.59;;;8.93;100.00
47670;BME280;33408;52.062;11.722;2024-02-26T12:47:19;100124.41;;;8.83;100.00